Terminal Aerodrome Forecast
Issued by NWS Sterling, VA

Current Version | Previous Version | Graphics & Text | Print | Product List | Glossary On
Versions: 1 2 3 4 5 6 7 8 9 10 11 12 13 14 15 16 17 18 19 20 21 22
000
FTUS41 KLWX 192121 AAB
TAFDCA
TAF AMD
KDCA 192121Z 1921/2024 30016G34KT P6SM BKN060
     FM200200 31015G31KT P6SM FEW250
     FM200600 31012G24KT P6SM FEW250
     FM202300 33011KT P6SM FEW250=

USA.gov is the U.S. government's official web portal to all federal, state and local government web resources and services.